Provincetown, MA

3:14 PM EDT on September 19, 2017 (GMT -0400)
Provincetown Municipal

Weather History for KPVC - February, 2014

Change the Weather History Date:

Tuesday, February 25, 2014

  Actual Average Record
Temperature  
Mean Temperature 26 °F -  
Max Temperature 28 °F 37 °F 64 °F (2017)
Min Temperature 23 °F 26 °F 17 °F (1997)
Degree Days  
Heating Degree Days 40    
Moisture  
Dew Point 8 °F    
Average Humidity 47    
Maximum Humidity 54    
Minimum Humidity 40    
Precipitation  
Precipitation 0.34 in - - ()
Sea Level Pressure  
Sea Level Pressure 29.94 in    
Wind  
Wind Speed 18 mph (WNW)    
Max Wind Speed 24 mph    
Max Gust Speed 37 mph    
Visibility 10 miles    
Events      
Averages and records for this station are not official NWS values.
T = Trace of Precipitation, MM = Missing Value Source: NWS Daily Summary

Daily Weather History Graph

Daily Weather History Graph

Search for Another Location

Airport or City:

Trip Planner

Search our weather history database for the weather conditions in past years. The results will help you decide how hot, cold, wet, or windy it might be!

Date:

Astronomy

Feb. 25, 2014 Rise Set
Actual Time 6:22 AM EST 5:26 PM EST
Civil Twilight 5:54 AM EST 5:54 PM EST
Nautical Twilight 5:21 AM EST 6:26 PM EST
Astronomical Twilight 4:49 AM EST 6:59 PM EST
Moon 3:17 AM EST (2/25) 1:25 PM EST (2/25)
Length of Visible Light 12h 00m
Length of Day
11h 03m
Waning Crescent, 18% of the Moon is Illuminated
Feb 25
Waning Crescent
Mar 1
New
Mar 8
First Quarter
Mar 16
Full
Mar 23
Last Quarter

Hourly Weather History & Observations

Time (EST) Temp. Windchill Dew Point Humidity Pressure Visibility Wind Dir Wind Speed Gust Speed Precip Events Conditions
12:15 AM 26.6 °F 12.0 °F 8.6 °F 47% 29.94 in 10.0 mi NW 23.0 mph 33.4 mph N/A   Mostly Cloudy
12:35 AM 26.6 °F 12.7 °F 8.6 °F 47% 29.94 in 10.0 mi NW 20.7 mph 35.7 mph 0.01 in   Scattered Clouds
12:55 AM 26.6 °F 11.7 °F 10.4 °F 51% 29.95 in 10.0 mi WNW 24.2 mph 31.1 mph 0.02 in   Mostly Cloudy
1:15 AM 26.6 °F 12.7 °F 10.4 °F 51% 29.95 in 10.0 mi NW 20.7 mph 32.2 mph 0.02 in   Mostly Cloudy
1:35 AM 24.8 °F 10.0 °F 10.4 °F 54% 29.96 in 10.0 mi NW 21.9 mph 32.2 mph 0.02 in   Mostly Cloudy
1:55 AM 24.8 °F 9.3 °F 8.6 °F 50% 29.96 in 10.0 mi NW 24.2 mph 36.8 mph 0.02 in   Mostly Cloudy
2:15 AM 24.8 °F 10.3 °F 10.4 °F 54% 29.96 in 10.0 mi WNW 20.7 mph 29.9 mph 0.02 in   Mostly Cloudy
2:35 AM 24.8 °F 11.5 °F 10.4 °F 54% 29.96 in 10.0 mi WNW 17.3 mph 32.2 mph 0.02 in   Overcast
2:55 AM 24.8 °F 10.3 °F 10.4 °F 54% 29.95 in 10.0 mi NW 20.7 mph 29.9 mph 0.02 in   Mostly Cloudy
3:15 AM 24.8 °F 11.1 °F 10.4 °F 54% 29.96 in 10.0 mi WNW 18.4 mph 24.2 mph 0.01 in   Mostly Cloudy
3:35 AM 24.8 °F 11.9 °F 10.4 °F 54% 29.96 in 10.0 mi West 16.1 mph 25.3 mph 0.02 in   Overcast
3:55 AM 24.8 °F 11.5 °F 10.4 °F 54% 29.96 in 10.0 mi West 17.3 mph 23.0 mph 0.03 in   Overcast
4:15 AM 24.8 °F 11.9 °F 10.4 °F 54% 29.96 in 10.0 mi West 16.1 mph 20.7 mph 0.01 in   Overcast
4:35 AM 24.8 °F 12.9 °F 10.4 °F 54% 29.96 in 10.0 mi West 13.8 mph 20.7 mph 0.02 in   Overcast
4:55 AM 24.8 °F 12.9 °F 8.6 °F 50% 29.97 in 10.0 mi West 13.8 mph 21.9 mph 0.02 in   Overcast
5:15 AM 24.8 °F 11.9 °F 8.6 °F 50% 29.97 in 10.0 mi West 16.1 mph 20.7 mph N/A   Overcast
5:35 AM 24.8 °F 12.4 °F 8.6 °F 50% 29.97 in 10.0 mi West 15.0 mph 20.7 mph N/A   Overcast
5:55 AM 24.8 °F 12.4 °F 8.6 °F 50% 29.97 in 10.0 mi West 15.0 mph 20.7 mph 0.01 in   Mostly Cloudy
6:15 AM 23.0 °F 11.1 °F 8.6 °F 54% 29.97 in 10.0 mi West 12.7 mph 23.0 mph N/A   Partly Cloudy
6:35 AM 23.0 °F 10.1 °F 8.6 °F 54% 29.97 in 10.0 mi West 15.0 mph 21.9 mph 0.02 in   Mostly Cloudy
6:55 AM 23.0 °F 11.1 °F 8.6 °F 54% 29.96 in 10.0 mi West 12.7 mph 21.9 mph 0.03 in   Mostly Cloudy
7:15 AM 23.0 °F 11.1 °F 8.6 °F 54% 29.97 in 10.0 mi West 12.7 mph 21.9 mph N/A   Mostly Cloudy
7:35 AM 24.8 °F 12.4 °F 8.6 °F 50% 29.98 in 10.0 mi West 15.0 mph - N/A   Overcast
7:55 AM 24.8 °F 11.1 °F 8.6 °F 50% 29.99 in 10.0 mi West 18.4 mph 24.2 mph N/A   Mostly Cloudy
8:15 AM 24.8 °F 11.9 °F 8.6 °F 50% 29.98 in 10.0 mi West 16.1 mph 24.2 mph 0.01 in   Scattered Clouds
8:35 AM 24.8 °F 12.4 °F 8.6 °F 50% 29.98 in 10.0 mi West 15.0 mph 23.0 mph 0.01 in   Clear
8:55 AM 24.8 °F 11.5 °F 6.8 °F 46% 29.98 in 10.0 mi West 17.3 mph 23.0 mph 0.02 in   Partly Cloudy
9:15 AM 24.8 °F 12.4 °F 8.6 °F 50% 29.98 in 10.0 mi West 15.0 mph 23.0 mph 0.02 in   Mostly Cloudy
9:35 AM 24.8 °F 11.5 °F 8.6 °F 50% 29.97 in 10.0 mi West 17.3 mph 21.9 mph 0.05 in   Mostly Cloudy
9:55 AM 26.6 °F 13.4 °F 6.8 °F 43% 29.97 in 10.0 mi West 18.4 mph 24.2 mph 0.05 in   Partly Cloudy
10:15 AM 26.6 °F 13.4 °F 6.8 °F 43% 29.96 in 10.0 mi West 18.4 mph 21.9 mph N/A   Partly Cloudy
10:35 AM 26.6 °F 13.4 °F 6.8 °F 43% 29.96 in 10.0 mi West 18.4 mph 25.3 mph 0.01 in   Scattered Clouds
10:55 AM 26.6 °F 13.1 °F 8.6 °F 47% 29.95 in 10.0 mi West 19.6 mph 25.3 mph 0.02 in   Clear
11:15 AM 26.6 °F 14.3 °F 6.8 °F 43% 29.94 in 10.0 mi West 16.1 mph 26.5 mph N/A   Partly Cloudy
11:35 AM 26.6 °F 13.1 °F 8.6 °F 47% 29.94 in 10.0 mi West 19.6 mph 25.3 mph 0.01 in   Scattered Clouds
11:55 AM 26.6 °F 14.3 °F 6.8 °F 43% 29.93 in 10.0 mi West 16.1 mph 26.5 mph 0.01 in   Mostly Cloudy
12:15 PM 28.4 °F 16.6 °F 8.6 °F 43% 29.93 in 10.0 mi West 16.1 mph 25.3 mph N/A   Overcast
12:35 PM 26.6 °F 13.8 °F 6.8 °F 43% 29.92 in 10.0 mi West 17.3 mph 23.0 mph N/A   Overcast
12:55 PM 26.6 °F 15.2 °F 8.6 °F 47% 29.91 in 10.0 mi West 13.8 mph 19.6 mph N/A   Overcast
1:15 PM 26.6 °F 14.7 °F 6.8 °F 43% 29.90 in 10.0 mi West 15.0 mph 23.0 mph N/A   Overcast
1:35 PM 26.6 °F 14.3 °F 8.6 °F 47% 29.90 in 10.0 mi West 16.1 mph 20.7 mph N/A   Overcast
1:55 PM 28.4 °F 18.0 °F 8.6 °F 43% 29.89 in 10.0 mi West 12.7 mph 24.2 mph N/A   Mostly Cloudy
2:15 PM 26.6 °F 13.4 °F 6.8 °F 43% 29.89 in 10.0 mi WNW 18.4 mph 24.2 mph N/A   Overcast
2:35 PM 26.6 °F 12.7 °F 8.6 °F 47% 29.89 in 10.0 mi West 20.7 mph 25.3 mph N/A   Overcast
2:55 PM 28.4 °F 16.2 °F 6.8 °F 40% 29.89 in 10.0 mi WNW 17.3 mph 26.5 mph N/A   Mostly Cloudy
3:15 PM 26.6 °F 13.1 °F 6.8 °F 43% 29.88 in 10.0 mi West 19.6 mph 23.0 mph N/A   Scattered Clouds
3:35 PM 26.6 °F 14.7 °F 6.8 °F 43% 29.88 in 10.0 mi West 15.0 mph 24.2 mph N/A   Scattered Clouds
3:55 PM 26.6 °F 13.8 °F 6.8 °F 43% 29.87 in 10.0 mi WNW 17.3 mph - N/A   Scattered Clouds
4:15 PM 28.4 °F 15.1 °F 6.8 °F 40% 29.87 in 10.0 mi West 20.7 mph 25.3 mph N/A   Scattered Clouds
4:35 PM 28.4 °F 14.4 °F 6.8 °F 40% 29.87 in 10.0 mi WNW 23.0 mph 28.8 mph N/A   Mostly Cloudy
4:55 PM 28.4 °F 16.2 °F 6.8 °F 40% 29.88 in 10.0 mi WNW 17.3 mph 25.3 mph N/A   Mostly Cloudy
5:15 PM 28.4 °F 15.1 °F 6.8 °F 40% 29.88 in 10.0 mi West 20.7 mph 28.8 mph 0.01 in   Partly Cloudy
5:35 PM 26.6 °F 14.3 °F 8.6 °F 47% 29.89 in 10.0 mi WNW 16.1 mph 24.2 mph 0.01 in   Clear
5:55 PM 26.6 °F 14.3 °F 8.6 °F 47% 29.89 in 10.0 mi WNW 16.1 mph 24.2 mph 0.01 in   Mostly Cloudy
6:15 PM 26.6 °F 13.1 °F 8.6 °F 47% 29.90 in 10.0 mi WNW 19.6 mph 25.3 mph N/A   Mostly Cloudy
6:35 PM 26.6 °F 13.4 °F 6.8 °F 43% 29.91 in 10.0 mi WNW 18.4 mph 24.2 mph N/A   Scattered Clouds
6:55 PM 26.6 °F 13.1 °F 8.6 °F 47% 29.91 in 10.0 mi WNW 19.6 mph 26.5 mph N/A   Partly Cloudy
7:15 PM 26.6 °F 14.7 °F 6.8 °F 43% 29.92 in 10.0 mi WNW 15.0 mph 23.0 mph 0.01 in   Partly Cloudy
7:35 PM 26.6 °F 15.7 °F 8.6 °F 47% 29.92 in 10.0 mi WNW 12.7 mph 20.7 mph 0.02 in   Partly Cloudy
7:55 PM 26.6 °F 14.3 °F 8.6 °F 47% 29.92 in 10.0 mi NW 16.1 mph 23.0 mph 0.02 in   Mostly Cloudy
8:15 PM 26.6 °F 13.8 °F 8.6 °F 47% 29.93 in 10.0 mi NW 17.3 mph 24.2 mph N/A   Mostly Cloudy
8:35 PM 26.6 °F 13.8 °F 8.6 °F 47% 29.93 in 10.0 mi NW 17.3 mph 23.0 mph N/A   Partly Cloudy
8:55 PM 26.6 °F 13.8 °F 6.8 °F 43% 29.93 in 10.0 mi WNW 17.3 mph 21.9 mph N/A   Clear
9:15 PM 26.6 °F 14.3 °F 6.8 °F 43% 29.93 in 10.0 mi West 16.1 mph 25.3 mph N/A   Clear
9:35 PM 26.6 °F 13.8 °F 5.0 °F 40% 29.94 in 10.0 mi WNW 17.3 mph 20.7 mph 0.01 in   Partly Cloudy
9:55 PM 24.8 °F 11.9 °F 6.8 °F 46% 29.94 in 10.0 mi West 16.1 mph 23.0 mph 0.02 in   Partly Cloudy
10:15 PM 24.8 °F 10.7 °F 6.8 °F 46% 29.94 in 10.0 mi West 19.6 mph 25.3 mph 0.01 in   Partly Cloudy
10:35 PM 24.8 °F 11.1 °F 6.8 °F 46% 29.95 in 10.0 mi West 18.4 mph 24.2 mph 0.02 in   Clear
10:55 PM 24.8 °F 11.1 °F 6.8 °F 46% 29.94 in 10.0 mi WNW 18.4 mph 25.3 mph 0.02 in   Clear
11:15 PM 24.8 °F 11.5 °F 6.8 °F 46% 29.94 in 10.0 mi West 17.3 mph 24.2 mph 0.02 in   Partly Cloudy
11:35 PM 24.8 °F 11.5 °F 6.8 °F 46% 29.95 in 10.0 mi West 17.3 mph 23.0 mph 0.02 in   Clear
11:55 PM 24.8 °F 10.7 °F 6.8 °F 46% 29.95 in 10.0 mi WNW 19.6 mph 25.3 mph 0.02 in   Scattered Clouds